San Antonio, TX

7:01 AM CST on December 05, 2016 (GMT -0600)
| | Change Station
Active Advisory: Flood Warning Active Notice: Record Report

Elev -9999 ft 0.00 °N, 0.00 °E | Updated

Cloudy
Cloudy
50 °F
Feels Like 50 °F
N
6
Wind Variable Wind from NNW
Gusts mph

Today
High -- | Low -- °F
--% Chance of Precip.
Yesterday
High -- | Low -- °F
Precip. -- in
Pressure 29.89 in
Visibility 8.0 miles
Clouds Overcast 1100 ft
Dew Point 47 °F
Humidity 89%
Rainfall --
Snow Depth Not available.
7:14 AM 5:34 PM
Waxing Crescent, 31% visible
METAR KSAT 051251Z 26007KT 8SM -RA OVC011 09/08 A2991 RMK AO2 RAE1155B26 SLP121 P0000 T00890078 $
Pressure 29.89 in
Visibility 8.0 miles
Clouds Overcast 1100 ft
Dew Point 47 °F
Humidity 89%
Rainfall --
Snow Depth Not available.
7:14 AM 5:34 PM
Waxing Crescent, 31% visible
METAR KSAT 051251Z 26007KT 8SM -RA OVC011 09/08 A2991 RMK AO2 RAE1155B26 SLP121 P0000 T00890078 $

10-Day Weather Forecast

Almanac

Astronomy

Dec. 05, 2016 Rise Set
Actual Time
Civil Twilight
Nautical Twilight
Astronomical Twilight
Moon
Length of Visible Light
Length of Day
Tomorrow will be .
, % of the Moon is Illuminated

Today's Extremes

State Highs State Lows

Community

WunderPhotos

Upload Photos

1,955,780 photos uploaded!

WunderBlog® & News

Nearby

Air Quality

  Air Quality AQ Index Pollutant
Not available.

Snow Depth

Station Depth Elevation

Earthquake Activity

City Distance Mag. Time & Date
Minimum magnitude displayed is 2.5.

Coastal Water Temperatures

Place Temperature

Stations

Nearby Weather Stations

Station Location Temp. Windchill Dew Point Humidity Wind Precip. Elev Updated Type
                   

Watches & Warnings

Flood Warning
Issued: 8:10 PM CST Dec. 4, 2016 – National Weather Service

the Flood Warning continues for
the San Antonio River near Elmendorf.
* At 7:30 PM Sunday the stage was 37.8 feet.
* Flood stage is 35.0 feet.
* Minor flooding is occurring and minor flooding is forecast.
* Forecast... the river crested at 43.7 feet at 1 am Sunday morning and has
since been falling steadily. The river is currently at minor flood stage
and is expected to fall below flood stage by 2 am Monday morning.
* Impact... at 39.0 feet... moderate lowland flooding damages crops and floods
pastureland below San Antonio to below Floresville. Secondary roads and low
bridges, irrigation pumps, oil field pump jacks and tank batteries flood.
Livestock are cut off in low areas..


Below are the latest river stages and forecasts:


                    bf fld observed forecast 7am
location stg stg stg day time Mon Tue Wed Thu Fri
Elmendorf 33 35 37.8 sun 07 PM 34.0 26.1 16.3 14.3 13.6



Lat... Lon 2919 9838 2926 9835 2924 9821 2918 9813
      2911 9820 2918 9826